createdAt,value
2018-04-21T00:20:17.947Z,3.80
2018-04-21T00:21:39.990Z,4.30
2018-04-21T02:02:45.913Z,3.00
2018-04-21T02:03:45.867Z,3.60
2018-04-21T02:05:38.819Z,4.30
2018-04-21T02:06:38.779Z,4.00
2018-04-21T02:08:31.694Z,4.10
2018-04-21T02:09:31.669Z,4.10
2018-04-21T02:11:24.590Z,4.10
2018-04-21T02:12:24.559Z,4.10
2018-04-21T02:14:17.504Z,4.20
2018-04-21T02:15:17.486Z,3.90
2018-04-21T02:17:10.393Z,4.00
2018-04-21T02:18:10.368Z,4.00
2018-04-21T02:20:03.295Z,4.10
2018-04-21T02:21:03.270Z,4.10
2018-04-21T02:22:56.290Z,4.10
2018-04-21T02:23:56.335Z,3.80
2018-04-21T02:25:49.242Z,3.90
2018-04-21T02:26:49.200Z,4.00
2018-04-21T02:28:42.182Z,4.10
2018-04-21T02:29:42.169Z,4.10
2018-04-21T02:32:26.210Z,3.90
2018-04-21T02:33:26.177Z,3.80
2018-04-21T02:35:19.090Z,4.00
2018-04-21T02:36:19.119Z,4.10
2018-04-21T02:38:11.996Z,4.00
2018-04-21T02:39:11.974Z,3.90
2018-04-21T02:41:04.948Z,3.70
2018-04-21T02:42:04.908Z,4.00
2018-04-21T02:43:57.869Z,4.10
2018-04-21T02:44:57.852Z,3.70
2018-04-21T02:46:50.800Z,4.20
2018-04-21T02:47:50.786Z,4.10
2018-04-21T02:49:43.751Z,4.10
2018-04-21T02:50:43.732Z,4.20
2018-04-21T02:52:36.724Z,4.20
2018-04-21T02:53:36.676Z,4.10
2018-04-21T02:55:29.746Z,4.60
2018-04-21T02:56:29.763Z,4.10
2018-04-21T02:58:22.539Z,4.30
2018-04-21T02:59:22.522Z,3.90
2018-04-21T03:01:15.459Z,4.10
2018-04-21T03:02:15.458Z,4.10
2018-04-21T03:04:08.453Z,4.20
2018-04-21T03:05:08.444Z,4.30
2018-04-21T03:07:01.270Z,4.30
2018-04-21T03:08:01.241Z,4.30
2018-04-21T03:09:54.234Z,4.00
2018-04-21T03:10:54.195Z,4.40
2018-04-21T03:12:47.187Z,4.60
2018-04-21T03:13:47.153Z,4.50
2018-04-21T03:15:40.087Z,4.30
2018-04-21T03:16:40.072Z,4.30
2018-04-21T03:18:33.021Z,4.50
2018-04-21T03:19:32.992Z,4.60
2018-04-21T03:21:25.951Z,4.30
2018-04-21T03:22:25.917Z,4.30
2018-04-21T03:24:18.816Z,4.20
2018-04-21T03:25:18.799Z,4.70
2018-04-21T03:26:18.802Z,4.30
2018-04-21T03:27:18.794Z,4.70
2018-04-21T03:28:18.787Z,4.60
2018-04-21T03:29:18.795Z,4.60
2018-04-21T03:30:18.783Z,4.40
2018-04-21T03:31:18.791Z,4.60
2018-04-21T03:32:18.787Z,4.60
2018-04-21T03:33:18.763Z,4.80
2018-04-21T03:34:18.757Z,4.70
2018-04-21T03:35:18.761Z,4.70
2018-04-21T03:36:18.763Z,4.70
2018-04-21T03:37:18.762Z,5.00
2018-04-21T03:38:18.740Z,4.70
2018-04-21T03:39:18.750Z,5.00
2018-04-21T03:40:18.752Z,4.60
2018-04-21T03:41:18.731Z,5.00
2018-04-21T03:42:18.740Z,5.10
2018-04-21T03:43:18.727Z,4.80
2018-04-21T03:44:18.717Z,4.70
2018-04-21T03:45:18.713Z,4.80
2018-04-21T03:46:18.706Z,4.90
2018-04-21T03:47:18.714Z,5.00
2018-04-21T03:48:18.704Z,4.70
2018-04-21T03:49:18.706Z,4.70
2018-04-21T03:50:18.694Z,5.30
2018-04-21T03:51:18.686Z,5.10
2018-04-21T03:52:18.692Z,4.70
2018-04-21T03:53:18.700Z,4.90
2018-04-21T03:54:18.688Z,5.00
2018-04-21T03:55:18.689Z,4.70
2018-04-21T03:56:18.676Z,4.70
2018-04-21T03:57:18.666Z,4.80
2018-04-21T03:58:18.666Z,5.00
2018-04-21T03:59:18.678Z,4.70
2018-04-21T04:00:18.667Z,5.20
2018-04-21T04:01:18.650Z,4.90
2018-04-21T04:02:18.664Z,5.10
2018-04-21T04:03:18.629Z,4.90
2018-04-21T04:04:18.638Z,5.10
2018-04-21T04:05:18.636Z,5.60
2018-04-21T04:06:18.641Z,5.10
2018-04-21T04:07:18.624Z,4.80
2018-04-21T04:08:18.622Z,5.20
2018-04-21T04:09:18.627Z,5.30
2018-04-21T04:10:18.618Z,5.40
2018-04-21T04:11:18.607Z,5.20
2018-04-21T04:12:18.612Z,4.70
2018-04-21T04:13:18.606Z,5.40
2018-04-21T04:14:18.588Z,5.30
2018-04-21T04:15:18.583Z,4.80
2018-04-21T04:16:18.596Z,4.90
2018-04-21T04:17:18.562Z,4.70
2018-04-21T04:18:18.574Z,4.60
2018-04-21T04:19:18.563Z,4.80
2018-04-21T04:20:18.557Z,5.30
2018-04-21T04:21:18.557Z,5.30
2018-04-21T04:22:18.562Z,5.20
2018-04-21T04:23:18.544Z,5.10
2018-04-21T04:24:18.547Z,5.20
2018-04-21T04:25:18.562Z,4.60
2018-04-21T04:26:18.526Z,5.00
2018-04-21T04:27:18.538Z,5.00
2018-04-21T04:28:18.532Z,5.00
2018-04-21T04:29:18.531Z,5.40
2018-04-21T04:30:18.509Z,5.10
2018-04-21T04:31:18.516Z,4.90
2018-04-21T04:32:18.503Z,4.80
2018-04-21T04:33:18.490Z,5.30
2018-04-21T04:34:18.498Z,5.20
2018-04-21T04:35:18.495Z,5.00
2018-04-21T04:36:18.489Z,5.80
2018-04-21T04:37:18.476Z,5.30
2018-04-21T04:38:18.472Z,5.50
2018-04-21T04:39:18.469Z,5.30
2018-04-21T04:40:18.474Z,5.10
2018-04-21T04:41:18.455Z,5.10
2018-04-21T04:42:18.461Z,5.00
2018-04-21T04:43:18.457Z,5.40
2018-04-21T04:44:18.456Z,5.40
2018-04-21T04:45:18.440Z,5.10
2018-04-21T04:46:18.436Z,5.50
2018-04-21T04:47:18.431Z,5.10
2018-04-21T04:48:18.444Z,5.20
2018-04-21T04:49:18.434Z,5.20
2018-04-21T04:50:18.417Z,5.00
2018-04-21T04:51:18.408Z,5.20
2018-04-21T04:52:18.408Z,5.00
2018-04-21T04:53:18.409Z,5.50
2018-04-21T04:54:18.400Z,5.50
2018-04-21T04:55:18.389Z,5.20
2018-04-21T04:56:18.407Z,5.10
2018-04-21T04:57:18.384Z,5.30
2018-04-21T04:58:18.380Z,5.40
2018-04-21T04:59:18.366Z,5.10
2018-04-21T05:00:18.378Z,5.20
2018-04-21T05:01:18.367Z,5.50
2018-04-21T05:02:18.362Z,5.10
2018-04-21T05:03:18.379Z,5.50
2018-04-21T05:04:18.358Z,5.30
2018-04-21T05:05:18.351Z,5.20
2018-04-21T05:06:18.343Z,4.90
2018-04-21T05:07:18.339Z,5.60
2018-04-21T05:08:18.342Z,5.50
2018-04-21T05:09:18.337Z,5.40
2018-04-21T05:10:18.325Z,5.60
2018-04-21T05:11:18.357Z,5.50
2018-04-21T05:12:18.312Z,5.30
2018-04-21T05:13:18.314Z,5.40
2018-04-21T05:14:18.309Z,5.80
2018-04-21T05:15:18.314Z,5.40
2018-04-21T05:16:18.300Z,5.50
2018-04-21T05:17:18.301Z,6.10
2018-04-21T05:18:18.331Z,6.20
2018-04-21T05:19:18.325Z,5.80
2018-04-21T05:20:18.293Z,5.80
2018-04-21T05:21:18.282Z,6.30
2018-04-21T05:22:18.275Z,6.10
2018-04-21T05:23:18.269Z,6.30
2018-04-21T05:24:18.273Z,6.10
2018-04-21T05:25:18.311Z,5.30
2018-04-21T05:26:18.324Z,5.80
2018-04-21T05:27:18.259Z,5.20
2018-04-21T05:28:18.250Z,5.10
2018-04-21T05:29:18.277Z,4.90
2018-04-21T05:30:18.246Z,5.10
2018-04-21T05:31:18.244Z,5.10
2018-04-21T05:32:18.241Z,5.00
2018-04-21T05:33:18.242Z,5.20
2018-04-21T05:34:18.236Z,4.90
2018-04-21T05:35:18.238Z,5.40
2018-04-21T05:36:18.218Z,5.20
2018-04-21T05:37:18.218Z,5.40
2018-04-21T05:38:18.218Z,5.20
2018-04-21T05:39:18.211Z,5.10
2018-04-21T05:40:18.231Z,5.00
2018-04-21T05:41:18.213Z,5.00
2018-04-21T05:42:18.212Z,5.30
2018-04-21T05:43:18.209Z,5.00
2018-04-21T05:44:18.243Z,4.90
2018-04-21T05:45:18.205Z,4.80
2018-04-21T05:46:18.201Z,4.70
2018-04-21T05:47:18.210Z,5.00
2018-04-21T05:48:18.184Z,4.50
2018-04-21T05:49:18.198Z,4.90
2018-04-21T05:50:18.189Z,4.80
2018-04-21T05:51:18.196Z,4.60
2018-04-21T05:52:18.203Z,4.70
2018-04-21T05:53:18.179Z,5.00
2018-04-21T05:54:18.182Z,4.60
2018-04-21T05:55:18.169Z,4.80
2018-04-21T05:56:18.172Z,4.80
2018-04-21T05:57:18.171Z,4.70
2018-04-21T05:58:18.173Z,4.80
2018-04-21T05:59:18.165Z,4.20
2018-04-21T06:00:18.164Z,4.30
2018-04-21T06:01:18.158Z,4.30
2018-04-21T06:02:18.168Z,4.30
2018-04-21T06:03:18.156Z,4.90
2018-04-21T06:04:18.154Z,4.80
2018-04-21T06:05:18.153Z,4.80
2018-04-21T06:06:18.139Z,4.70
2018-04-21T06:07:18.148Z,5.20
2018-04-21T06:08:18.138Z,4.90
2018-04-21T06:09:18.144Z,4.70
2018-04-21T06:10:18.141Z,5.00
2018-04-21T06:11:18.147Z,4.30
2018-04-21T06:12:18.133Z,4.80
2018-04-21T06:13:18.126Z,4.50
2018-04-21T06:14:18.126Z,4.40
2018-04-21T06:15:18.128Z,4.50
2018-04-21T06:16:18.144Z,4.60
2018-04-21T06:17:18.128Z,4.40
2018-04-21T06:18:18.120Z,4.60
2018-04-21T06:19:18.127Z,4.50
2018-04-21T06:20:18.167Z,4.50
2018-04-21T06:21:18.120Z,4.90
2018-04-21T06:22:18.131Z,4.30
2018-04-21T06:23:18.109Z,4.50
2018-04-21T06:24:18.126Z,4.50
2018-04-21T06:25:18.115Z,4.50
2018-04-21T06:26:18.108Z,4.20
2018-04-21T06:27:18.123Z,4.10
2018-04-21T06:28:18.107Z,4.50
2018-04-21T06:29:18.111Z,4.90
2018-04-21T06:30:18.115Z,5.20
2018-04-21T06:31:18.093Z,5.10
2018-04-21T06:32:18.107Z,5.50
2018-04-21T06:33:18.107Z,5.30
2018-04-21T06:34:18.116Z,5.40
2018-04-21T06:35:18.100Z,5.60
2018-04-21T06:36:18.113Z,6.20
2018-04-21T06:37:18.101Z,5.70
2018-04-21T06:38:18.095Z,5.90
2018-04-21T06:39:18.107Z,5.80
2018-04-21T06:40:18.109Z,5.80
2018-04-21T06:41:18.097Z,5.90
2018-04-21T06:42:18.093Z,6.10
2018-04-21T06:43:18.087Z,5.80
2018-04-21T06:44:18.089Z,5.80
2018-04-21T06:45:18.814Z,5.20
2018-04-21T06:46:18.093Z,5.30
2018-04-21T06:47:18.081Z,5.40
2018-04-21T06:48:18.084Z,5.50
2018-04-21T06:49:18.110Z,5.20
2018-04-21T06:50:18.084Z,5.80
2018-04-21T06:51:18.088Z,5.80
2018-04-21T06:52:18.082Z,5.50
2018-04-21T06:53:18.079Z,5.60
2018-04-21T06:54:18.082Z,5.50
2018-04-21T06:55:20.361Z,5.70
2018-04-21T06:56:18.080Z,5.50
2018-04-21T06:57:18.212Z,5.20
2018-04-21T06:58:18.071Z,5.40
2018-04-21T06:59:18.077Z,5.30
2018-04-21T07:00:18.077Z,5.50
2018-04-21T07:01:18.075Z,5.40
2018-04-21T07:02:18.071Z,5.70
2018-04-21T07:03:18.067Z,5.40
2018-04-21T07:04:18.074Z,6.00
2018-04-21T07:05:18.078Z,5.40
2018-04-21T07:06:18.073Z,5.60
2018-04-21T07:07:18.068Z,5.80
2018-04-21T07:08:18.173Z,6.00
2018-04-21T07:09:18.070Z,5.90
2018-04-21T07:10:18.076Z,5.80
2018-04-21T07:11:18.078Z,6.00
2018-04-21T07:12:18.084Z,5.70
2018-04-21T07:13:18.083Z,6.10
2018-04-21T07:14:18.069Z,6.20
2018-04-21T07:15:18.076Z,6.10
2018-04-21T07:16:18.090Z,6.50
2018-04-21T07:17:18.079Z,6.20
2018-04-21T07:18:18.082Z,6.00
2018-04-21T07:19:18.086Z,6.50
2018-04-21T07:20:18.081Z,6.50
2018-04-21T07:21:18.081Z,5.90
2018-04-21T07:22:18.079Z,5.90
2018-04-21T07:23:18.077Z,5.80
2018-04-21T07:24:18.079Z,6.40
2018-04-21T07:25:18.085Z,6.50
2018-04-21T07:26:18.093Z,6.00
2018-04-21T07:27:18.093Z,6.20
2018-04-21T07:28:18.097Z,6.60
2018-04-21T07:29:18.098Z,6.30
2018-04-21T07:30:18.104Z,6.50
2018-04-21T07:31:18.120Z,6.50
2018-04-21T07:32:18.119Z,6.40
2018-04-21T07:33:18.129Z,6.20
2018-04-21T07:34:18.138Z,6.40
2018-04-21T07:35:18.147Z,6.30
2018-04-21T07:36:18.151Z,6.90
2018-04-21T07:37:18.165Z,6.10
2018-04-21T07:38:18.173Z,6.30
2018-04-21T07:39:18.177Z,6.30
2018-04-21T07:40:18.192Z,6.30
2018-04-21T07:41:18.231Z,6.10
2018-04-21T07:42:18.220Z,6.20
2018-04-21T07:43:18.223Z,6.00
2018-04-21T07:44:18.239Z,5.90
2018-04-21T07:45:18.243Z,5.90
2018-04-21T07:46:18.263Z,5.70
2018-04-21T07:47:18.259Z,5.90
2018-04-21T07:48:18.282Z,5.90
2018-04-21T07:49:18.317Z,5.60
2018-04-21T07:50:18.303Z,5.40
2018-04-21T07:51:18.314Z,5.20
2018-04-21T07:52:18.327Z,5.60
2018-04-21T07:53:18.341Z,5.80
2018-04-21T07:54:18.356Z,5.50
2018-04-21T07:55:18.368Z,5.50
2018-04-21T07:56:18.377Z,5.40
2018-04-21T07:57:18.397Z,6.00
2018-04-21T07:58:18.405Z,5.60
2018-04-21T07:59:18.416Z,5.50
2018-04-21T08:00:18.428Z,5.50
2018-04-21T08:01:18.439Z,5.20
2018-04-21T08:02:18.456Z,5.40
2018-04-21T08:03:18.475Z,5.10
2018-04-21T08:04:18.486Z,5.40
2018-04-21T08:05:18.497Z,5.30
2018-04-21T08:06:18.508Z,5.50
2018-04-21T08:07:18.522Z,5.20
2018-04-21T08:08:18.549Z,5.60
2018-04-21T08:09:18.557Z,5.20
2018-04-21T08:10:18.597Z,5.60
2018-04-21T08:11:18.585Z,5.70
2018-04-21T08:12:18.595Z,5.90
2018-04-21T08:13:18.608Z,5.80
2018-04-21T08:14:18.628Z,6.20
2018-04-21T08:15:18.641Z,6.40
2018-04-21T08:16:18.656Z,7.30
2018-04-21T08:17:18.676Z,7.90
2018-04-21T08:18:18.687Z,8.40
2018-04-21T08:19:18.702Z,9.40
2018-04-21T08:20:18.723Z,9.00
2018-04-21T08:21:18.735Z,8.00
2018-04-21T08:22:18.748Z,8.10
2018-04-21T08:23:18.763Z,7.90
2018-04-21T08:24:18.778Z,7.20
2018-04-21T08:25:18.791Z,7.50
2018-04-21T08:26:18.805Z,7.30
2018-04-21T08:27:18.824Z,6.70
2018-04-21T08:28:18.836Z,6.50
2018-04-21T08:29:18.858Z,6.30
2018-04-21T08:30:18.868Z,6.40
2018-04-21T08:31:18.963Z,6.00
2018-04-21T08:32:18.903Z,5.70
2018-04-21T08:33:18.919Z,5.60
2018-04-21T08:34:18.931Z,5.70
2018-04-21T08:35:18.967Z,5.00
2018-04-21T08:36:18.963Z,5.50
2018-04-21T08:37:18.970Z,5.20
2018-04-21T08:38:18.996Z,5.70
2018-04-21T08:39:19.007Z,5.20
2018-04-21T08:40:19.035Z,5.20
2018-04-21T08:41:19.045Z,4.90
2018-04-21T08:42:19.057Z,5.00
2018-04-21T08:43:19.109Z,5.00
2018-04-21T08:44:19.100Z,5.50
2018-04-21T08:45:19.109Z,5.70
2018-04-21T08:46:19.130Z,5.10
2018-04-21T08:47:19.147Z,4.70
2018-04-21T08:48:19.166Z,4.50
2018-04-21T08:49:19.224Z,4.40
2018-04-21T08:50:19.199Z,4.10
2018-04-21T08:51:19.211Z,4.10
2018-04-21T08:52:19.237Z,4.00
2018-04-21T08:53:19.252Z,4.10
2018-04-21T08:54:19.272Z,3.80
2018-04-21T08:55:19.306Z,3.80
2018-04-21T08:56:19.386Z,4.00
2018-04-21T08:57:19.320Z,3.80
2018-04-21T08:58:19.345Z,4.40
2018-04-21T08:59:19.350Z,4.10
2018-04-21T09:00:19.382Z,3.80
2018-04-21T09:01:19.401Z,4.20
2018-04-21T09:02:19.414Z,3.90
2018-04-21T09:03:19.443Z,4.00
2018-04-21T09:04:19.456Z,3.60
2018-04-21T09:05:19.496Z,3.90
2018-04-21T09:06:19.500Z,4.00
2018-04-21T09:07:19.512Z,4.00
2018-04-21T09:08:19.535Z,3.90
2018-04-21T09:09:19.545Z,3.70
2018-04-21T09:10:19.578Z,3.90
2018-04-21T09:11:19.588Z,4.10
2018-04-21T09:12:19.606Z,4.10
2018-04-21T09:13:19.628Z,4.20
2018-04-21T09:14:19.644Z,4.20
2018-04-21T09:15:19.741Z,4.10
2018-04-21T09:16:19.687Z,3.80
2018-04-21T09:17:19.705Z,3.80
2018-04-21T09:18:19.726Z,4.40
2018-04-21T09:19:19.747Z,3.80
2018-04-21T09:20:19.777Z,4.20
2018-04-21T09:21:19.785Z,3.90
2018-04-21T09:22:19.807Z,3.70
2018-04-21T09:23:19.824Z,3.50
2018-04-21T09:24:19.852Z,4.10
2018-04-21T09:25:19.867Z,3.80
2018-04-21T09:26:19.888Z,3.60
2018-04-21T09:27:19.903Z,3.60
2018-04-21T09:28:19.929Z,3.30
2018-04-21T09:29:19.946Z,3.30
2018-04-21T09:30:19.966Z,4.20
2018-04-21T09:31:19.982Z,4.20
2018-04-21T09:32:20.014Z,3.60
2018-04-21T09:33:20.033Z,3.60
2018-04-21T09:34:20.043Z,3.80
2018-04-21T09:35:20.072Z,3.80
2018-04-21T09:36:20.094Z,3.90
2018-04-21T09:37:20.111Z,3.70
2018-04-21T09:38:20.138Z,3.70
2018-04-21T09:39:20.158Z,4.60
2018-04-21T09:40:20.178Z,4.00
2018-04-21T09:41:20.197Z,3.70
2018-04-21T09:42:20.215Z,4.50
2018-04-21T09:43:20.237Z,3.70
2018-04-21T09:44:20.263Z,3.80
2018-04-21T09:45:20.281Z,3.60
2018-04-21T09:46:20.324Z,3.90
2018-04-21T09:47:20.324Z,3.90
2018-04-21T09:48:20.346Z,3.90
2018-04-21T09:49:20.365Z,3.90
2018-04-21T09:50:20.385Z,3.80
2018-04-21T09:51:20.408Z,4.00
2018-04-21T09:52:20.427Z,4.40
2018-04-21T09:53:20.446Z,4.00
2018-04-21T09:54:20.472Z,3.70
2018-04-21T09:55:20.492Z,3.80
2018-04-21T09:56:20.503Z,3.40
2018-04-21T09:57:20.538Z,3.50
2018-04-21T09:58:20.556Z,3.50
2018-04-21T09:59:20.579Z,3.70
2018-04-21T10:00:20.601Z,3.30
2018-04-21T10:01:20.622Z,3.40
2018-04-21T10:02:20.642Z,3.50
2018-04-21T10:03:20.666Z,3.80
2018-04-21T10:04:20.718Z,3.30
2018-04-21T10:05:20.763Z,3.40
2018-04-21T10:06:20.723Z,4.10
2018-04-21T10:07:20.752Z,3.80
2018-04-21T10:08:20.777Z,3.70
2018-04-21T10:09:20.793Z,3.50
2018-04-21T10:10:20.815Z,3.60
2018-04-21T10:11:20.838Z,3.70
2018-04-21T10:12:20.855Z,3.60
2018-04-21T10:13:20.885Z,3.80
2018-04-21T10:14:20.900Z,3.70
2018-04-21T10:15:20.981Z,3.50
2018-04-21T10:16:20.942Z,3.10
2018-04-21T10:17:20.974Z,3.50
2018-04-21T10:18:20.989Z,3.30
2018-04-21T10:19:21.003Z,3.10
2018-04-21T10:20:21.035Z,3.60
2018-04-21T10:21:21.063Z,3.40
2018-04-21T10:22:21.092Z,3.50
2018-04-21T10:23:21.102Z,3.10
2018-04-21T10:24:21.140Z,3.20
2018-04-21T10:25:21.192Z,3.50
2018-04-21T10:26:21.163Z,3.20
2018-04-21T10:27:21.182Z,4.60
2018-04-21T10:28:21.213Z,3.40
2018-04-21T10:29:21.227Z,3.40
2018-04-21T10:30:21.242Z,3.10
2018-04-21T10:31:21.260Z,3.40
2018-04-21T10:32:21.287Z,3.10
2018-04-21T10:33:21.335Z,3.30
2018-04-21T10:34:21.327Z,3.40
2018-04-21T10:35:21.353Z,3.10
2018-04-21T10:36:21.368Z,3.20
2018-04-21T10:37:21.385Z,3.20
2018-04-21T10:38:21.413Z,3.20
2018-04-21T10:39:21.432Z,3.20
2018-04-21T10:40:21.449Z,3.10
2018-04-21T10:41:21.472Z,3.50
2018-04-21T10:42:21.512Z,3.20
2018-04-21T10:43:21.509Z,3.20
2018-04-21T10:44:21.537Z,3.40
2018-04-21T10:45:21.557Z,3.60
2018-04-21T10:46:21.572Z,3.20
2018-04-21T10:47:21.615Z,3.30
2018-04-21T10:48:21.609Z,3.20
2018-04-21T10:49:21.631Z,3.40
2018-04-21T10:50:21.653Z,3.40
2018-04-21T10:51:21.680Z,3.30
2018-04-21T10:52:21.689Z,3.30
2018-04-21T10:53:21.713Z,3.30
2018-04-21T10:54:21.722Z,3.60
2018-04-21T10:55:21.774Z,3.20
2018-04-21T10:56:21.773Z,3.20
2018-04-21T10:57:21.799Z,3.30
2018-04-21T10:58:21.821Z,3.30
2018-04-21T10:59:21.835Z,3.10
2018-04-21T11:00:21.869Z,3.20
2018-04-21T11:01:21.885Z,4.20
2018-04-21T11:02:21.891Z,3.60
2018-04-21T11:03:21.919Z,3.60
2018-04-21T11:04:21.943Z,3.20
2018-04-21T11:05:21.966Z,3.60
2018-04-21T11:06:21.978Z,3.40
2018-04-21T11:07:22.003Z,3.10
2018-04-21T11:08:22.021Z,3.80
2018-04-21T11:09:22.044Z,3.40
2018-04-21T11:10:22.060Z,3.60
2018-04-21T11:11:22.087Z,3.40
2018-04-21T11:12:22.097Z,3.30
2018-04-21T11:13:22.123Z,3.70
2018-04-21T11:14:22.143Z,3.80
2018-04-21T11:15:22.175Z,3.20
2018-04-21T11:16:22.227Z,3.30
2018-04-21T11:17:22.219Z,3.20
2018-04-21T11:18:22.230Z,3.40
2018-04-21T11:19:22.249Z,3.50
2018-04-21T11:20:22.296Z,3.40
2018-04-21T11:21:22.289Z,3.30
2018-04-21T11:22:22.316Z,3.60
2018-04-21T11:23:22.348Z,3.90
2018-04-21T11:24:22.359Z,3.60
2018-04-21T11:25:22.373Z,3.40
2018-04-21T11:26:22.396Z,3.60
2018-04-21T11:27:22.424Z,3.60
2018-04-21T11:28:22.453Z,4.40
2018-04-21T11:29:22.456Z,4.30
2018-04-21T11:30:22.490Z,4.10
2018-04-21T11:31:22.513Z,3.90
2018-04-21T11:32:22.532Z,4.10
2018-04-21T11:33:22.546Z,3.90
2018-04-21T11:34:22.565Z,4.30
2018-04-21T11:35:22.627Z,4.30
2018-04-21T11:36:22.611Z,4.40
2018-04-21T11:37:22.631Z,4.70
2018-04-21T11:38:22.658Z,4.50
2018-04-21T11:39:22.680Z,4.60
2018-04-21T11:40:22.706Z,5.10
2018-04-21T11:41:22.781Z,4.60
2018-04-21T11:42:22.751Z,4.60
2018-04-21T11:43:22.760Z,4.70
2018-04-21T11:44:22.784Z,4.70
2018-04-21T11:45:22.811Z,5.10
2018-04-21T11:46:22.829Z,4.70
2018-04-21T11:47:22.849Z,4.20
2018-04-21T11:48:22.860Z,4.50
2018-04-21T11:49:22.906Z,4.20
2018-04-21T11:50:22.906Z,5.20
2018-04-21T11:51:22.941Z,5.20
2018-04-21T11:52:22.948Z,5.00
2018-04-21T11:53:22.971Z,5.10
2018-04-21T11:54:22.987Z,4.80
2018-04-21T11:55:23.007Z,4.70
2018-04-21T11:56:23.030Z,4.60
2018-04-21T11:57:23.055Z,4.70
2018-04-21T11:58:23.071Z,4.90
2018-04-21T11:59:23.090Z,5.00
2018-04-21T12:00:23.117Z,5.00
2018-04-21T12:01:23.141Z,4.40
2018-04-21T12:02:23.194Z,4.70
2018-04-21T12:03:23.221Z,5.00
2018-04-21T12:04:23.301Z,4.70
2018-04-21T12:05:23.253Z,4.80
2018-04-21T12:06:23.240Z,4.90
2018-04-21T12:07:23.256Z,4.90
2018-04-21T12:08:23.275Z,4.90
2018-04-21T12:09:23.304Z,5.00
2018-04-21T12:10:23.316Z,4.90
2018-04-21T12:11:23.328Z,4.90
2018-04-21T12:12:23.372Z,4.90
2018-04-21T12:13:23.392Z,5.20
2018-04-21T12:14:23.394Z,4.80
2018-04-21T12:15:23.413Z,5.00
2018-04-21T12:16:23.435Z,4.90
2018-04-21T12:17:23.457Z,5.00
2018-04-21T12:18:23.470Z,4.70
2018-04-21T12:19:23.496Z,4.30
2018-04-21T12:20:23.509Z,5.30
2018-04-21T12:21:23.529Z,4.80
2018-04-21T12:22:23.555Z,4.40
2018-04-21T12:23:23.616Z,4.20
2018-04-21T12:24:23.583Z,4.70
2018-04-21T12:25:23.611Z,4.10
2018-04-21T12:26:23.629Z,4.50
2018-04-21T12:27:23.673Z,4.20
2018-04-21T12:28:23.661Z,4.80
2018-04-21T12:29:23.671Z,4.30
2018-04-21T12:30:23.686Z,4.80
2018-04-21T12:31:23.704Z,4.60
2018-04-21T12:32:23.717Z,4.80
2018-04-21T12:33:23.738Z,5.00
2018-04-21T12:34:23.748Z,4.50
2018-04-21T12:35:23.758Z,4.40
2018-04-21T12:36:23.778Z,4.90
2018-04-21T12:37:23.792Z,4.70
2018-04-21T12:38:23.795Z,4.50
2018-04-21T12:39:23.824Z,4.80
2018-04-21T12:40:23.821Z,4.70
2018-04-21T12:41:23.830Z,4.20
2018-04-21T12:42:23.843Z,4.60
2018-04-21T12:43:23.847Z,4.50
2018-04-21T12:44:23.871Z,4.70
2018-04-21T12:45:23.875Z,4.20
2018-04-21T12:46:23.889Z,4.60
2018-04-21T12:47:23.897Z,4.60
2018-04-21T12:48:23.893Z,4.20
2018-04-21T12:49:23.914Z,4.50
2018-04-21T12:50:23.925Z,4.50
2018-04-21T12:51:23.931Z,4.90
2018-04-21T12:52:23.941Z,4.60
2018-04-21T12:53:23.949Z,4.50
2018-04-21T12:54:23.960Z,4.40
2018-04-21T12:55:23.965Z,4.70
2018-04-21T12:56:23.979Z,4.90
2018-04-21T12:57:23.989Z,4.50
2018-04-21T12:58:23.988Z,5.00
2018-04-21T12:59:24.029Z,5.30
2018-04-21T13:00:24.020Z,4.60
2018-04-21T13:01:24.017Z,4.60
2018-04-21T13:02:24.045Z,4.40
2018-04-21T13:03:24.030Z,4.70
2018-04-21T13:04:24.045Z,4.50
2018-04-21T13:05:24.048Z,4.80
2018-04-21T13:06:24.053Z,4.70
2018-04-21T13:07:24.060Z,4.40
2018-04-21T13:08:24.061Z,4.20
2018-04-21T13:09:24.074Z,4.50
2018-04-21T13:10:24.083Z,4.20
2018-04-21T13:11:24.084Z,4.30
2018-04-21T13:12:24.085Z,4.40
2018-04-21T13:13:24.103Z,4.20
2018-04-21T13:14:24.113Z,4.10
2018-04-21T13:15:24.109Z,4.50
2018-04-21T13:16:24.119Z,4.40
2018-04-21T13:17:24.123Z,6.00
2018-04-21T13:18:24.128Z,5.60
2018-04-21T13:19:24.176Z,5.80
2018-04-21T13:20:24.135Z,4.70
2018-04-21T13:21:24.143Z,4.60
2018-04-21T13:22:24.162Z,4.40
2018-04-21T13:23:24.160Z,4.30
2018-04-21T13:24:24.160Z,4.30
2018-04-21T13:25:24.181Z,4.30
2018-04-21T13:26:24.175Z,4.10
2018-04-21T13:27:24.178Z,3.90
2018-04-21T13:28:24.187Z,4.10
2018-04-21T13:29:24.209Z,4.60
2018-04-21T13:30:24.192Z,4.50
2018-04-21T13:31:24.191Z,3.70
2018-04-21T13:32:24.206Z,3.80
2018-04-21T13:33:24.218Z,4.00
2018-04-21T13:34:24.217Z,4.00
2018-04-21T13:35:24.218Z,4.00
2018-04-21T13:36:24.260Z,4.10
2018-04-21T13:37:24.251Z,4.00
2018-04-21T13:38:24.251Z,3.90
2018-04-21T13:39:24.265Z,3.50
2018-04-21T13:40:24.304Z,3.60
2018-04-21T13:41:24.255Z,3.50
2018-04-21T13:42:24.260Z,4.10
2018-04-21T13:43:24.325Z,4.00
2018-04-21T13:44:24.270Z,3.90
2018-04-21T13:45:24.271Z,3.50
2018-04-21T13:46:24.278Z,4.10
2018-04-21T13:47:24.341Z,3.60
2018-04-21T13:48:24.290Z,3.90
2018-04-21T13:49:24.295Z,3.40
2018-04-21T13:50:24.297Z,3.80
2018-04-21T13:51:24.315Z,3.80
2018-04-21T13:52:24.315Z,3.30
2018-04-21T13:53:24.323Z,3.40
2018-04-21T13:54:24.324Z,3.40
2018-04-21T13:55:24.318Z,3.70
2018-04-21T13:56:24.327Z,3.30
2018-04-21T13:57:24.332Z,3.60
2018-04-21T13:58:24.339Z,3.60
2018-04-21T13:59:24.359Z,3.60
2018-04-21T14:00:24.351Z,3.50
2018-04-21T14:01:24.358Z,3.60
2018-04-21T14:02:24.364Z,3.50
2018-04-21T14:03:24.356Z,3.70
2018-04-21T14:04:24.350Z,3.80
2018-04-21T14:05:24.382Z,3.40
2018-04-21T14:06:24.393Z,3.30
2018-04-21T14:07:24.388Z,3.60
2018-04-21T14:08:24.398Z,3.40
2018-04-21T14:09:24.403Z,4.00
2018-04-21T14:10:24.408Z,3.70
2018-04-21T14:11:24.399Z,3.40
2018-04-21T14:12:24.404Z,3.80
2018-04-21T14:13:24.404Z,4.00
2018-04-21T14:14:24.407Z,3.80
2018-04-21T14:15:24.462Z,4.10
2018-04-21T14:16:24.410Z,3.90
2018-04-21T14:17:24.426Z,4.00
2018-04-21T14:18:24.422Z,3.40
2018-04-21T14:19:24.428Z,3.50
2018-04-21T14:20:24.430Z,4.10
2018-04-21T14:21:24.433Z,3.70
2018-04-21T14:22:24.486Z,3.60
2018-04-21T14:23:24.493Z,3.90
2018-04-21T14:24:24.443Z,4.00
2018-04-21T14:25:24.452Z,3.60
2018-04-21T14:26:24.456Z,3.90
2018-04-21T14:27:24.448Z,3.90
2018-04-21T14:28:24.476Z,3.90
2018-04-21T14:29:24.458Z,3.80
2018-04-21T14:30:24.472Z,3.80
2018-04-21T14:31:24.471Z,3.70
2018-04-21T14:32:24.494Z,3.80
2018-04-21T14:33:24.488Z,3.70
2018-04-21T14:34:24.485Z,3.70
2018-04-21T14:35:24.493Z,3.80
2018-04-21T14:36:24.488Z,3.70
2018-04-21T14:37:24.526Z,3.60
2018-04-21T14:38:24.494Z,3.90
2018-04-21T14:39:24.521Z,3.50
2018-04-21T14:40:24.518Z,3.30
2018-04-21T14:41:24.513Z,3.60
2018-04-21T14:42:24.517Z,3.60
2018-04-21T14:43:24.530Z,3.60
2018-04-21T14:44:24.530Z,3.60
2018-04-21T14:45:24.524Z,3.70
2018-04-21T14:46:24.534Z,3.30
2018-04-21T14:47:24.531Z,3.20
2018-04-21T14:48:24.543Z,3.30
2018-04-21T14:49:24.557Z,3.40
2018-04-21T14:50:24.553Z,3.40
2018-04-21T14:51:24.555Z,3.60
2018-04-21T14:52:24.571Z,4.00
2018-04-21T14:53:24.568Z,4.30
2018-04-21T14:54:24.557Z,3.90
2018-04-21T14:55:24.559Z,4.20
2018-04-21T14:56:24.575Z,3.50
2018-04-21T14:57:24.577Z,3.10
2018-04-21T14:58:24.576Z,3.30
2018-04-21T14:59:24.584Z,3.50
2018-04-21T15:00:24.587Z,4.00
2018-04-21T15:01:24.584Z,5.20
2018-04-21T15:02:24.599Z,3.70
2018-04-21T15:03:24.582Z,3.70
2018-04-21T15:04:24.589Z,3.50
2018-04-21T15:05:24.597Z,3.80
2018-04-21T15:06:24.600Z,3.80
2018-04-21T15:07:24.618Z,3.80
2018-04-21T15:08:24.608Z,3.60
2018-04-21T15:09:24.620Z,3.60
2018-04-21T15:10:24.625Z,3.40
2018-04-21T15:11:24.627Z,3.50
2018-04-21T15:12:24.627Z,3.30
2018-04-21T15:13:24.635Z,3.60
2018-04-21T15:14:24.636Z,3.30
2018-04-21T15:15:24.637Z,3.40
2018-04-21T15:16:24.648Z,3.90
2018-04-21T15:17:24.658Z,3.50
2018-04-21T15:18:24.659Z,3.50
2018-04-21T15:19:24.653Z,3.30
2018-04-21T15:20:24.660Z,4.00
2018-04-21T15:21:24.668Z,3.90
2018-04-21T15:22:24.660Z,4.20
2018-04-21T15:23:24.674Z,4.10
2018-04-21T15:24:24.657Z,3.90
2018-04-21T15:25:24.672Z,3.80
2018-04-21T15:26:24.686Z,4.10
2018-04-21T15:27:24.685Z,4.20
2018-04-21T15:28:24.685Z,4.10
2018-04-21T15:29:24.688Z,3.50
2018-04-21T15:30:24.687Z,4.00
2018-04-21T15:31:24.704Z,4.00
2018-04-21T15:32:24.713Z,3.70
2018-04-21T15:33:24.717Z,3.90
2018-04-21T15:34:24.705Z,3.90
2018-04-21T15:35:24.701Z,3.90
2018-04-21T15:36:24.710Z,3.80
2018-04-21T15:37:24.709Z,4.00
2018-04-21T15:38:24.708Z,3.70
2018-04-21T15:39:24.717Z,3.60
2018-04-21T15:40:24.729Z,3.80
2018-04-21T15:41:24.736Z,3.60
2018-04-21T15:42:24.722Z,4.00
2018-04-21T15:43:24.732Z,4.10
2018-04-21T15:44:24.731Z,3.80